Terminal Aerodrome Forecast
Issued by NWS

Home | Current Version | Previous Version | Text Only | Print | Product List | Glossary On
Versions: 1 2 3 4 5 6 7 8 9 10 11 12 13 14 15 16 17 18 19 20 21 22 23 24 25 26 27 28 29 30 31 32 33 34 35 36 37 38 39 40 41 42 43 44 45 46 47 48 49 50
000
FTUS43 KDDC 041836 AAA
TAFHYS
TAF AMD
KHYS 041836Z 0419/0518 31013KT P6SM SKC
     FM042100 25007KT P6SM SKC
     FM050600 20009KT P6SM FEW250 WS020/22035KT
     FM051200 19010KT P6SM FEW250 WS020/22045KT
     FM051400 19015G25KT P6SM SCT200 WS011/21030KT
     FM051500 19017G25KT P6SM SCT200=

USA.gov is the U.S. government's official web portal to all federal, state and local government web resources and services.